sensor_id;sensor_type;location;lat;lon;timestamp;temperature;humidity
10171;DHT22;5127;50.922;6.988;2023-02-18T00:00:06;15.00;64.20
10171;DHT22;5127;50.922;6.988;2023-02-18T00:02:34;15.10;64.30
10171;DHT22;5127;50.922;6.988;2023-02-18T00:05:03;15.00;64.30
10171;DHT22;5127;50.922;6.988;2023-02-18T00:07:33;15.10;64.40
10171;DHT22;5127;50.922;6.988;2023-02-18T00:10:00;15.00;64.40
10171;DHT22;5127;50.922;6.988;2023-02-18T00:12:29;15.10;64.50
10171;DHT22;5127;50.922;6.988;2023-02-18T00:14:56;15.00;64.40
10171;DHT22;5127;50.922;6.988;2023-02-18T00:17:24;15.00;64.40
10171;DHT22;5127;50.922;6.988;2023-02-18T00:19:51;15.00;64.40
10171;DHT22;5127;50.922;6.988;2023-02-18T00:22:20;15.00;64.50
10171;DHT22;5127;50.922;6.988;2023-02-18T00:24:47;15.00;64.50
10171;DHT22;5127;50.922;6.988;2023-02-18T00:27:14;15.10;64.60
10171;DHT22;5127;50.922;6.988;2023-02-18T00:29:42;15.00;64.60
10171;DHT22;5127;50.922;6.988;2023-02-18T00:32:09;15.00;64.60
10171;DHT22;5127;50.922;6.988;2023-02-18T00:34:36;15.00;65.30
10171;DHT22;5127;50.922;6.988;2023-02-18T00:37:04;15.00;64.60
10171;DHT22;5127;50.922;6.988;2023-02-18T00:39:32;15.00;64.70
10171;DHT22;5127;50.922;6.988;2023-02-18T00:42:00;15.00;64.70
10171;DHT22;5127;50.922;6.988;2023-02-18T00:44:27;15.00;64.70
10171;DHT22;5127;50.922;6.988;2023-02-18T00:46:56;15.00;64.60
10171;DHT22;5127;50.922;6.988;2023-02-18T00:49:23;15.00;64.70
10171;DHT22;5127;50.922;6.988;2023-02-18T00:51:51;15.00;64.70
10171;DHT22;5127;50.922;6.988;2023-02-18T00:54:18;15.00;64.70
10171;DHT22;5127;50.922;6.988;2023-02-18T00:56:47;15.00;64.70
10171;DHT22;5127;50.922;6.988;2023-02-18T00:59:14;15.00;64.70
10171;DHT22;5127;50.922;6.988;2023-02-18T01:01:41;15.00;64.70
10171;DHT22;5127;50.922;6.988;2023-02-18T01:04:08;15.00;64.60
10171;DHT22;5127;50.922;6.988;2023-02-18T01:06:36;15.00;64.60
10171;DHT22;5127;50.922;6.988;2023-02-18T01:09:03;15.00;64.70
10171;DHT22;5127;50.922;6.988;2023-02-18T01:11:31;15.00;64.70
10171;DHT22;5127;50.922;6.988;2023-02-18T01:13:59;14.90;64.60
10171;DHT22;5127;50.922;6.988;2023-02-18T01:16:29;14.90;64.70
10171;DHT22;5127;50.922;6.988;2023-02-18T01:18:56;14.90;64.70
10171;DHT22;5127;50.922;6.988;2023-02-18T01:21:25;14.90;64.80
10171;DHT22;5127;50.922;6.988;2023-02-18T01:23:52;14.90;64.80
10171;DHT22;5127;50.922;6.988;2023-02-18T01:26:20;14.90;64.80
10171;DHT22;5127;50.922;6.988;2023-02-18T01:28:47;14.90;64.80
10171;DHT22;5127;50.922;6.988;2023-02-18T01:31:16;14.90;64.80
10171;DHT22;5127;50.922;6.988;2023-02-18T01:33:43;14.90;64.90
10171;DHT22;5127;50.922;6.988;2023-02-18T01:36:11;14.90;64.80
10171;DHT22;5127;50.922;6.988;2023-02-18T01:38:38;14.90;65.00
10171;DHT22;5127;50.922;6.988;2023-02-18T01:41:06;14.90;64.90
10171;DHT22;5127;50.922;6.988;2023-02-18T01:43:33;14.90;64.90
10171;DHT22;5127;50.922;6.988;2023-02-18T01:46:11;14.90;64.90
10171;DHT22;5127;50.922;6.988;2023-02-18T01:48:42;14.90;65.10
10171;DHT22;5127;50.922;6.988;2023-02-18T01:51:13;14.90;65.00
10171;DHT22;5127;50.922;6.988;2023-02-18T01:53:46;14.90;65.10
10171;DHT22;5127;50.922;6.988;2023-02-18T01:56:21;14.90;65.10
10171;DHT22;5127;50.922;6.988;2023-02-18T01:58:51;14.90;65.10
10171;DHT22;5127;50.922;6.988;2023-02-18T02:01:20;14.90;65.10
10171;DHT22;5127;50.922;6.988;2023-02-18T02:03:48;14.90;65.10
10171;DHT22;5127;50.922;6.988;2023-02-18T02:06:17;14.80;65.10
10171;DHT22;5127;50.922;6.988;2023-02-18T02:08:51;14.80;65.10
10171;DHT22;5127;50.922;6.988;2023-02-18T02:11:24;14.80;65.20
10171;DHT22;5127;50.922;6.988;2023-02-18T02:14:10;14.80;65.30
10171;DHT22;5127;50.922;6.988;2023-02-18T02:16:44;14.80;65.50
10171;DHT22;5127;50.922;6.988;2023-02-18T02:19:46;14.80;65.40
10171;DHT22;5127;50.922;6.988;2023-02-18T02:22:35;14.80;65.60
10171;DHT22;5127;50.922;6.988;2023-02-18T02:25:18;14.80;65.60
10171;DHT22;5127;50.922;6.988;2023-02-18T02:28:01;14.80;65.60
10171;DHT22;5127;50.922;6.988;2023-02-18T02:30:57;14.80;65.60
10171;DHT22;5127;50.922;6.988;2023-02-18T02:36:48;14.80;65.70
10171;DHT22;5127;50.922;6.988;2023-02-18T02:39:23;14.80;65.50
10171;DHT22;5127;50.922;6.988;2023-02-18T02:42:00;14.80;65.50
10171;DHT22;5127;50.922;6.988;2023-02-18T02:44:34;14.80;65.60
10171;DHT22;5127;50.922;6.988;2023-02-18T02:47:10;14.80;65.60
10171;DHT22;5127;50.922;6.988;2023-02-18T02:49:46;14.80;65.70
10171;DHT22;5127;50.922;6.988;2023-02-18T02:52:19;14.80;65.60
10171;DHT22;5127;50.922;6.988;2023-02-18T02:54:49;14.80;65.60
10171;DHT22;5127;50.922;6.988;2023-02-18T02:57:44;14.80;65.50
10171;DHT22;5127;50.922;6.988;2023-02-18T03:00:18;14.80;65.70
10171;DHT22;5127;50.922;6.988;2023-02-18T03:03:00;14.80;65.60
10171;DHT22;5127;50.922;6.988;2023-02-18T03:05:38;14.80;65.70
10171;DHT22;5127;50.922;6.988;2023-02-18T03:08:24;14.80;65.60
10171;DHT22;5127;50.922;6.988;2023-02-18T03:11:00;14.80;65.70
10171;DHT22;5127;50.922;6.988;2023-02-18T03:13:50;14.80;65.70
10171;DHT22;5127;50.922;6.988;2023-02-18T03:16:26;14.80;65.80
10171;DHT22;5127;50.922;6.988;2023-02-18T03:19:03;14.80;65.70
10171;DHT22;5127;50.922;6.988;2023-02-18T03:21:35;14.80;65.90
10171;DHT22;5127;50.922;6.988;2023-02-18T03:24:09;14.80;65.90
10171;DHT22;5127;50.922;6.988;2023-02-18T03:26:44;14.80;65.90
10171;DHT22;5127;50.922;6.988;2023-02-18T03:29:14;14.80;66.60
10171;DHT22;5127;50.922;6.988;2023-02-18T03:31:45;14.80;65.80
10171;DHT22;5127;50.922;6.988;2023-02-18T03:34:17;14.80;65.90
10171;DHT22;5127;50.922;6.988;2023-02-18T03:36:46;14.80;65.90
10171;DHT22;5127;50.922;6.988;2023-02-18T03:39:17;14.70;66.50
10171;DHT22;5127;50.922;6.988;2023-02-18T03:41:45;14.80;66.00
10171;DHT22;5127;50.922;6.988;2023-02-18T03:44:13;14.70;65.90
10171;DHT22;5127;50.922;6.988;2023-02-18T03:46:42;14.70;66.00
10171;DHT22;5127;50.922;6.988;2023-02-18T03:49:10;14.70;66.10
10171;DHT22;5127;50.922;6.988;2023-02-18T03:51:39;14.70;66.00
10171;DHT22;5127;50.922;6.988;2023-02-18T03:54:07;14.70;66.10
10171;DHT22;5127;50.922;6.988;2023-02-18T03:56:36;14.60;66.00
10171;DHT22;5127;50.922;6.988;2023-02-18T03:59:03;14.60;66.90
10171;DHT22;5127;50.922;6.988;2023-02-18T04:01:31;14.60;66.10
10171;DHT22;5127;50.922;6.988;2023-02-18T04:03:58;14.60;66.20
10171;DHT22;5127;50.922;6.988;2023-02-18T04:06:25;14.50;66.20
10171;DHT22;5127;50.922;6.988;2023-02-18T04:08:52;14.60;66.30
10171;DHT22;5127;50.922;6.988;2023-02-18T04:11:19;14.60;66.40
10171;DHT22;5127;50.922;6.988;2023-02-18T04:13:48;14.60;66.40
10171;DHT22;5127;50.922;6.988;2023-02-18T04:16:15;14.60;66.40
10171;DHT22;5127;50.922;6.988;2023-02-18T04:18:43;14.60;66.40
10171;DHT22;5127;50.922;6.988;2023-02-18T04:21:10;14.60;66.40
10171;DHT22;5127;50.922;6.988;2023-02-18T04:23:37;14.60;66.40
10171;DHT22;5127;50.922;6.988;2023-02-18T04:26:05;14.60;66.40
10171;DHT22;5127;50.922;6.988;2023-02-18T04:28:32;14.60;66.30
10171;DHT22;5127;50.922;6.988;2023-02-18T04:31:00;14.60;66.30
10171;DHT22;5127;50.922;6.988;2023-02-18T04:33:28;14.60;66.30
10171;DHT22;5127;50.922;6.988;2023-02-18T04:35:55;14.60;66.20
10171;DHT22;5127;50.922;6.988;2023-02-18T04:38:22;14.70;66.30
10171;DHT22;5127;50.922;6.988;2023-02-18T04:40:49;14.70;66.30
10171;DHT22;5127;50.922;6.988;2023-02-18T04:43:17;14.70;66.20
10171;DHT22;5127;50.922;6.988;2023-02-18T04:45:44;14.70;66.20
10171;DHT22;5127;50.922;6.988;2023-02-18T04:48:12;14.70;66.10
10171;DHT22;5127;50.922;6.988;2023-02-18T04:50:40;14.70;66.10
10171;DHT22;5127;50.922;6.988;2023-02-18T04:53:07;14.70;66.00
10171;DHT22;5127;50.922;6.988;2023-02-18T04:55:34;14.80;66.10
10171;DHT22;5127;50.922;6.988;2023-02-18T04:58:02;14.80;66.10
10171;DHT22;5127;50.922;6.988;2023-02-18T05:00:29;14.70;66.00
10171;DHT22;5127;50.922;6.988;2023-02-18T05:02:56;14.80;66.20
10171;DHT22;5127;50.922;6.988;2023-02-18T05:05:25;14.80;66.10
10171;DHT22;5127;50.922;6.988;2023-02-18T05:07:52;14.80;66.20
10171;DHT22;5127;50.922;6.988;2023-02-18T05:10:19;14.80;66.20
10171;DHT22;5127;50.922;6.988;2023-02-18T05:12:46;14.80;66.20
10171;DHT22;5127;50.922;6.988;2023-02-18T05:15:14;14.70;66.20
10171;DHT22;5127;50.922;6.988;2023-02-18T05:17:41;14.70;66.20
10171;DHT22;5127;50.922;6.988;2023-02-18T05:20:09;14.60;66.20
10171;DHT22;5127;50.922;6.988;2023-02-18T05:22:38;14.60;66.30
10171;DHT22;5127;50.922;6.988;2023-02-18T05:25:05;14.60;66.40
10171;DHT22;5127;50.922;6.988;2023-02-18T05:27:33;14.50;66.40
10171;DHT22;5127;50.922;6.988;2023-02-18T05:30:00;14.50;66.40
10171;DHT22;5127;50.922;6.988;2023-02-18T05:32:27;14.50;66.50
10171;DHT22;5127;50.922;6.988;2023-02-18T05:34:54;14.40;66.60
10171;DHT22;5127;50.922;6.988;2023-02-18T05:37:21;14.40;66.70
10171;DHT22;5127;50.922;6.988;2023-02-18T05:39:50;14.40;66.70
10171;DHT22;5127;50.922;6.988;2023-02-18T05:42:17;14.30;66.80
10171;DHT22;5127;50.922;6.988;2023-02-18T05:44:45;14.30;66.90
10171;DHT22;5127;50.922;6.988;2023-02-18T05:47:13;14.20;66.80
10171;DHT22;5127;50.922;6.988;2023-02-18T05:49:41;14.20;66.90
10171;DHT22;5127;50.922;6.988;2023-02-18T05:52:09;14.30;67.00
10171;DHT22;5127;50.922;6.988;2023-02-18T05:54:37;14.20;67.00
10171;DHT22;5127;50.922;6.988;2023-02-18T05:57:06;14.20;67.00
10171;DHT22;5127;50.922;6.988;2023-02-18T05:59:33;14.20;67.10
10171;DHT22;5127;50.922;6.988;2023-02-18T06:02:01;14.20;67.10
10171;DHT22;5127;50.922;6.988;2023-02-18T06:04:28;14.20;67.20
10171;DHT22;5127;50.922;6.988;2023-02-18T06:06:55;14.20;67.20
10171;DHT22;5127;50.922;6.988;2023-02-18T06:09:22;14.10;67.30
10171;DHT22;5127;50.922;6.988;2023-02-18T06:11:49;14.20;67.40
10171;DHT22;5127;50.922;6.988;2023-02-18T06:14:19;14.10;67.40
10171;DHT22;5127;50.922;6.988;2023-02-18T06:16:46;14.10;67.50
10171;DHT22;5127;50.922;6.988;2023-02-18T06:19:13;14.20;67.50
10171;DHT22;5127;50.922;6.988;2023-02-18T06:21:40;14.20;67.50
10171;DHT22;5127;50.922;6.988;2023-02-18T06:24:08;14.20;67.60
10171;DHT22;5127;50.922;6.988;2023-02-18T06:26:35;14.20;67.60
10171;DHT22;5127;50.922;6.988;2023-02-18T06:29:03;14.20;67.60
10171;DHT22;5127;50.922;6.988;2023-02-18T06:31:31;14.10;67.50
10171;DHT22;5127;50.922;6.988;2023-02-18T06:33:59;14.10;67.50
10171;DHT22;5127;50.922;6.988;2023-02-18T06:36:26;14.10;67.50
10171;DHT22;5127;50.922;6.988;2023-02-18T06:38:53;14.20;67.50
10171;DHT22;5127;50.922;6.988;2023-02-18T06:41:22;14.20;67.50
10171;DHT22;5127;50.922;6.988;2023-02-18T06:43:50;14.10;67.40
10171;DHT22;5127;50.922;6.988;2023-02-18T06:46:17;14.10;67.30
10171;DHT22;5127;50.922;6.988;2023-02-18T06:48:46;14.10;67.20
10171;DHT22;5127;50.922;6.988;2023-02-18T06:51:13;14.10;67.20
10171;DHT22;5127;50.922;6.988;2023-02-18T06:53:42;14.10;67.20
10171;DHT22;5127;50.922;6.988;2023-02-18T06:56:09;14.10;67.10
10171;DHT22;5127;50.922;6.988;2023-02-18T06:58:37;14.10;67.00
10171;DHT22;5127;50.922;6.988;2023-02-18T07:01:04;14.20;67.10
10171;DHT22;5127;50.922;6.988;2023-02-18T07:03:31;14.20;67.00
10171;DHT22;5127;50.922;6.988;2023-02-18T07:06:00;14.10;66.90
10171;DHT22;5127;50.922;6.988;2023-02-18T07:08:27;14.20;67.00
10171;DHT22;5127;50.922;6.988;2023-02-18T07:10:55;14.20;67.00
10171;DHT22;5127;50.922;6.988;2023-02-18T07:13:23;14.20;66.90
10171;DHT22;5127;50.922;6.988;2023-02-18T07:15:50;14.20;66.80
10171;DHT22;5127;50.922;6.988;2023-02-18T07:18:17;14.30;66.90
10171;DHT22;5127;50.922;6.988;2023-02-18T07:20:45;14.30;66.80
10171;DHT22;5127;50.922;6.988;2023-02-18T07:23:13;14.30;66.70
10171;DHT22;5127;50.922;6.988;2023-02-18T07:25:41;14.30;66.80
10171;DHT22;5127;50.922;6.988;2023-02-18T07:28:08;14.30;66.80
10171;DHT22;5127;50.922;6.988;2023-02-18T07:30:35;14.40;67.00
10171;DHT22;5127;50.922;6.988;2023-02-18T07:33:02;14.40;66.90
10171;DHT22;5127;50.922;6.988;2023-02-18T07:35:30;14.50;66.90
10171;DHT22;5127;50.922;6.988;2023-02-18T07:37:57;14.50;66.90
10171;DHT22;5127;50.922;6.988;2023-02-18T07:40:26;14.60;66.90
10171;DHT22;5127;50.922;6.988;2023-02-18T07:42:53;14.60;66.70
10171;DHT22;5127;50.922;6.988;2023-02-18T07:45:20;14.70;66.70
10171;DHT22;5127;50.922;6.988;2023-02-18T07:47:48;14.70;66.70
10171;DHT22;5127;50.922;6.988;2023-02-18T07:50:15;14.80;66.70
10171;DHT22;5127;50.922;6.988;2023-02-18T07:52:43;14.90;66.70
10171;DHT22;5127;50.922;6.988;2023-02-18T07:55:10;14.90;66.50
10171;DHT22;5127;50.922;6.988;2023-02-18T07:57:38;15.00;66.40
10171;DHT22;5127;50.922;6.988;2023-02-18T08:00:20;15.00;66.10
10171;DHT22;5127;50.922;6.988;2023-02-18T08:02:47;15.00;66.70
10171;DHT22;5127;50.922;6.988;2023-02-18T08:05:14;15.10;65.80
10171;DHT22;5127;50.922;6.988;2023-02-18T08:07:42;15.10;65.60
10171;DHT22;5127;50.922;6.988;2023-02-18T08:10:09;15.10;65.40
10171;DHT22;5127;50.922;6.988;2023-02-18T08:12:36;15.00;65.00
10171;DHT22;5127;50.922;6.988;2023-02-18T08:15:05;15.00;65.00
10171;DHT22;5127;50.922;6.988;2023-02-18T08:17:32;14.90;64.80
10171;DHT22;5127;50.922;6.988;2023-02-18T08:20:00;14.90;64.80
10171;DHT22;5127;50.922;6.988;2023-02-18T08:22:27;14.80;64.70
10171;DHT22;5127;50.922;6.988;2023-02-18T08:24:54;14.80;64.70
10171;DHT22;5127;50.922;6.988;2023-02-18T08:27:22;14.70;64.80
10171;DHT22;5127;50.922;6.988;2023-02-18T08:29:50;14.60;64.70
10171;DHT22;5127;50.922;6.988;2023-02-18T08:32:18;14.60;64.70
10171;DHT22;5127;50.922;6.988;2023-02-18T08:34:46;14.60;64.70
10171;DHT22;5127;50.922;6.988;2023-02-18T08:37:13;14.50;64.50
10171;DHT22;5127;50.922;6.988;2023-02-18T08:39:40;14.50;64.40
10171;DHT22;5127;50.922;6.988;2023-02-18T08:42:07;14.40;64.20
10171;DHT22;5127;50.922;6.988;2023-02-18T08:44:35;14.30;64.10
10171;DHT22;5127;50.922;6.988;2023-02-18T08:47:02;14.30;64.10
10171;DHT22;5127;50.922;6.988;2023-02-18T08:49:30;14.20;64.00
10171;DHT22;5127;50.922;6.988;2023-02-18T08:51:58;14.20;64.10
10171;DHT22;5127;50.922;6.988;2023-02-18T08:54:25;14.20;64.00
10171;DHT22;5127;50.922;6.988;2023-02-18T08:56:53;14.20;64.10
10171;DHT22;5127;50.922;6.988;2023-02-18T08:59:21;14.20;63.90
10171;DHT22;5127;50.922;6.988;2023-02-18T09:01:48;14.20;64.00
10171;DHT22;5127;50.922;6.988;2023-02-18T09:04:15;14.20;64.00
10171;DHT22;5127;50.922;6.988;2023-02-18T09:06:44;14.10;63.90
10171;DHT22;5127;50.922;6.988;2023-02-18T09:09:11;14.20;63.90
10171;DHT22;5127;50.922;6.988;2023-02-18T09:11:39;14.20;63.90
10171;DHT22;5127;50.922;6.988;2023-02-18T09:14:07;14.10;63.90
10171;DHT22;5127;50.922;6.988;2023-02-18T09:16:34;14.20;63.90
10171;DHT22;5127;50.922;6.988;2023-02-18T09:19:03;14.20;63.80
10171;DHT22;5127;50.922;6.988;2023-02-18T09:21:32;14.10;63.70
10171;DHT22;5127;50.922;6.988;2023-02-18T09:24:00;14.10;63.70
10171;DHT22;5127;50.922;6.988;2023-02-18T09:26:28;14.20;63.70
10171;DHT22;5127;50.922;6.988;2023-02-18T09:28:55;14.10;63.80
10171;DHT22;5127;50.922;6.988;2023-02-18T09:31:24;14.10;63.60
10171;DHT22;5127;50.922;6.988;2023-02-18T09:33:53;14.20;64.20
10171;DHT22;5127;50.922;6.988;2023-02-18T09:36:21;14.20;63.80
10171;DHT22;5127;50.922;6.988;2023-02-18T09:38:48;14.20;63.80
10171;DHT22;5127;50.922;6.988;2023-02-18T09:41:26;14.20;63.80
10171;DHT22;5127;50.922;6.988;2023-02-18T09:43:58;14.30;63.70
10171;DHT22;5127;50.922;6.988;2023-02-18T09:46:30;14.30;63.90
10171;DHT22;5127;50.922;6.988;2023-02-18T09:49:01;14.30;63.60
10171;DHT22;5127;50.922;6.988;2023-02-18T09:51:28;14.40;63.70
10171;DHT22;5127;50.922;6.988;2023-02-18T09:53:56;14.40;63.90
10171;DHT22;5127;50.922;6.988;2023-02-18T09:56:28;14.40;63.60
10171;DHT22;5127;50.922;6.988;2023-02-18T09:58:57;14.40;63.30
10171;DHT22;5127;50.922;6.988;2023-02-18T10:01:29;14.50;63.50
10171;DHT22;5127;50.922;6.988;2023-02-18T10:04:00;14.50;63.20
10171;DHT22;5127;50.922;6.988;2023-02-18T10:06:31;14.50;63.20
10171;DHT22;5127;50.922;6.988;2023-02-18T10:09:01;14.50;63.10
10171;DHT22;5127;50.922;6.988;2023-02-18T10:11:34;14.50;63.00
10171;DHT22;5127;50.922;6.988;2023-02-18T10:14:02;14.50;63.00
10171;DHT22;5127;50.922;6.988;2023-02-18T10:16:34;14.50;63.10
10171;DHT22;5127;50.922;6.988;2023-02-18T10:19:08;14.50;63.00
10171;DHT22;5127;50.922;6.988;2023-02-18T10:21:39;14.50;62.80
10171;DHT22;5127;50.922;6.988;2023-02-18T10:24:15;14.50;63.00
10171;DHT22;5127;50.922;6.988;2023-02-18T10:26:47;14.60;62.80
10171;DHT22;5127;50.922;6.988;2023-02-18T10:29:17;14.50;63.00
10171;DHT22;5127;50.922;6.988;2023-02-18T10:31:46;14.60;63.10
10171;DHT22;5127;50.922;6.988;2023-02-18T10:34:21;14.60;63.10
10171;DHT22;5127;50.922;6.988;2023-02-18T10:36:54;14.60;63.00
10171;DHT22;5127;50.922;6.988;2023-02-18T10:39:35;14.60;63.00
10171;DHT22;5127;50.922;6.988;2023-02-18T10:42:22;14.60;62.90
10171;DHT22;5127;50.922;6.988;2023-02-18T10:44:56;14.60;62.90
10171;DHT22;5127;50.922;6.988;2023-02-18T10:47:33;14.60;62.90
10171;DHT22;5127;50.922;6.988;2023-02-18T10:50:08;14.70;63.00
10171;DHT22;5127;50.922;6.988;2023-02-18T10:52:40;14.60;62.90
10171;DHT22;5127;50.922;6.988;2023-02-18T10:55:09;14.60;63.00
10171;DHT22;5127;50.922;6.988;2023-02-18T10:57:48;14.60;63.10
10171;DHT22;5127;50.922;6.988;2023-02-18T11:00:18;14.60;62.90
10171;DHT22;5127;50.922;6.988;2023-02-18T11:03:02;14.60;63.10
10171;DHT22;5127;50.922;6.988;2023-02-18T11:05:35;14.60;63.00
10171;DHT22;5127;50.922;6.988;2023-02-18T11:08:06;14.60;63.30
10171;DHT22;5127;50.922;6.988;2023-02-18T11:10:38;14.60;63.40
10171;DHT22;5127;50.922;6.988;2023-02-18T11:13:08;14.60;63.50
10171;DHT22;5127;50.922;6.988;2023-02-18T11:15:36;14.60;63.50
10171;DHT22;5127;50.922;6.988;2023-02-18T11:18:31;14.50;63.40
10171;DHT22;5127;50.922;6.988;2023-02-18T11:21:04;14.40;63.70
10171;DHT22;5127;50.922;6.988;2023-02-18T11:23:45;14.40;63.60
10171;DHT22;5127;50.922;6.988;2023-02-18T11:26:14;14.30;63.80
10171;DHT22;5127;50.922;6.988;2023-02-18T11:28:46;14.20;63.80
10171;DHT22;5127;50.922;6.988;2023-02-18T11:31:20;14.20;64.20
10171;DHT22;5127;50.922;6.988;2023-02-18T11:33:51;14.10;64.30
10171;DHT22;5127;50.922;6.988;2023-02-18T11:36:23;14.10;64.60
10171;DHT22;5127;50.922;6.988;2023-02-18T11:38:54;14.10;64.80
10171;DHT22;5127;50.922;6.988;2023-02-18T11:41:29;14.10;64.90
10171;DHT22;5127;50.922;6.988;2023-02-18T11:43:59;14.00;65.00
10171;DHT22;5127;50.922;6.988;2023-02-18T11:46:27;14.00;65.20
10171;DHT22;5127;50.922;6.988;2023-02-18T11:48:55;13.90;65.20
10171;DHT22;5127;50.922;6.988;2023-02-18T11:51:25;13.90;65.40
10171;DHT22;5127;50.922;6.988;2023-02-18T11:53:58;13.90;65.60
10171;DHT22;5127;50.922;6.988;2023-02-18T11:56:29;13.80;65.60
10171;DHT22;5127;50.922;6.988;2023-02-18T11:58:57;13.80;65.70
10171;DHT22;5127;50.922;6.988;2023-02-18T12:01:36;13.80;65.90
10171;DHT22;5127;50.922;6.988;2023-02-18T12:04:09;13.70;66.20
10171;DHT22;5127;50.922;6.988;2023-02-18T12:06:41;13.70;66.30
10171;DHT22;5127;50.922;6.988;2023-02-18T12:09:18;13.70;66.40
10171;DHT22;5127;50.922;6.988;2023-02-18T12:11:49;13.70;66.80
10171;DHT22;5127;50.922;6.988;2023-02-18T12:14:19;13.70;66.90
10171;DHT22;5127;50.922;6.988;2023-02-18T12:17:03;13.60;66.80
10171;DHT22;5127;50.922;6.988;2023-02-18T12:19:50;13.70;67.20
10171;DHT22;5127;50.922;6.988;2023-02-18T12:22:26;13.60;67.20
10171;DHT22;5127;50.922;6.988;2023-02-18T12:25:09;13.60;67.30
10171;DHT22;5127;50.922;6.988;2023-02-18T12:27:48;13.60;67.50
10171;DHT22;5127;50.922;6.988;2023-02-18T12:30:45;13.60;67.60
10171;DHT22;5127;50.922;6.988;2023-02-18T12:33:25;13.60;67.70
10171;DHT22;5127;50.922;6.988;2023-02-18T12:36:05;13.60;67.70
10171;DHT22;5127;50.922;6.988;2023-02-18T12:38:53;13.70;67.90
10171;DHT22;5127;50.922;6.988;2023-02-18T12:41:32;13.60;67.90
10171;DHT22;5127;50.922;6.988;2023-02-18T12:44:13;13.60;68.00
10171;DHT22;5127;50.922;6.988;2023-02-18T12:46:56;13.70;68.20
10171;DHT22;5127;50.922;6.988;2023-02-18T12:49:46;13.60;68.20
10171;DHT22;5127;50.922;6.988;2023-02-18T12:52:27;13.70;68.40
10171;DHT22;5127;50.922;6.988;2023-02-18T12:55:30;13.70;68.40
10171;DHT22;5127;50.922;6.988;2023-02-18T12:58:07;13.70;68.40
10171;DHT22;5127;50.922;6.988;2023-02-18T13:00:48;13.80;68.60
10171;DHT22;5127;50.922;6.988;2023-02-18T13:03:39;13.80;68.60
10171;DHT22;5127;50.922;6.988;2023-02-18T13:06:19;13.80;68.50
10171;DHT22;5127;50.922;6.988;2023-02-18T13:08:55;13.90;68.70
10171;DHT22;5127;50.922;6.988;2023-02-18T13:11:35;13.90;68.70
10171;DHT22;5127;50.922;6.988;2023-02-18T13:14:13;13.90;68.80
10171;DHT22;5127;50.922;6.988;2023-02-18T13:16:43;13.90;68.80
10171;DHT22;5127;50.922;6.988;2023-02-18T13:19:17;13.90;68.70
10171;DHT22;5127;50.922;6.988;2023-02-18T13:21:49;13.90;68.80
10171;DHT22;5127;50.922;6.988;2023-02-18T13:24:26;13.90;68.90
10171;DHT22;5127;50.922;6.988;2023-02-18T13:26:59;13.90;69.00
10171;DHT22;5127;50.922;6.988;2023-02-18T13:29:31;13.90;69.00
10171;DHT22;5127;50.922;6.988;2023-02-18T13:32:07;13.90;68.90
10171;DHT22;5127;50.922;6.988;2023-02-18T13:34:42;13.90;68.90
10171;DHT22;5127;50.922;6.988;2023-02-18T13:37:20;13.90;68.80
10171;DHT22;5127;50.922;6.988;2023-02-18T13:39:51;14.00;69.00
10171;DHT22;5127;50.922;6.988;2023-02-18T13:42:34;13.90;68.80
10171;DHT22;5127;50.922;6.988;2023-02-18T13:47:49;14.00;69.00
10171;DHT22;5127;50.922;6.988;2023-02-18T13:50:25;14.00;69.20
10171;DHT22;5127;50.922;6.988;2023-02-18T13:53:11;14.00;69.10
10171;DHT22;5127;50.922;6.988;2023-02-18T13:55:41;14.00;69.20
10171;DHT22;5127;50.922;6.988;2023-02-18T13:58:15;14.00;69.30
10171;DHT22;5127;50.922;6.988;2023-02-18T14:00:49;14.00;69.30
10171;DHT22;5127;50.922;6.988;2023-02-18T14:03:27;14.10;69.40
10171;DHT22;5127;50.922;6.988;2023-02-18T14:05:57;14.00;69.30
10171;DHT22;5127;50.922;6.988;2023-02-18T14:08:35;14.10;69.50
10171;DHT22;5127;50.922;6.988;2023-02-18T14:11:38;14.10;69.50
10171;DHT22;5127;50.922;6.988;2023-02-18T14:14:36;14.10;69.20
10171;DHT22;5127;50.922;6.988;2023-02-18T14:20:31;14.00;69.30
10171;DHT22;5127;50.922;6.988;2023-02-18T14:22:59;14.00;69.40
10171;DHT22;5127;50.922;6.988;2023-02-18T14:25:35;14.00;69.60
10171;DHT22;5127;50.922;6.988;2023-02-18T14:28:40;14.00;69.60
10171;DHT22;5127;50.922;6.988;2023-02-18T14:31:26;14.00;69.50
10171;DHT22;5127;50.922;6.988;2023-02-18T14:36:58;13.90;69.50
10171;DHT22;5127;50.922;6.988;2023-02-18T14:39:42;14.00;69.70
10171;DHT22;5127;50.922;6.988;2023-02-18T14:42:23;14.00;69.60
10171;DHT22;5127;50.922;6.988;2023-02-18T14:45:08;14.00;69.70
10171;DHT22;5127;50.922;6.988;2023-02-18T14:47:49;14.00;70.00
10171;DHT22;5127;50.922;6.988;2023-02-18T14:50:21;14.00;69.70
10171;DHT22;5127;50.922;6.988;2023-02-18T14:52:49;14.00;69.80
10171;DHT22;5127;50.922;6.988;2023-02-18T14:55:22;14.10;69.80
10171;DHT22;5127;50.922;6.988;2023-02-18T14:57:55;14.10;69.70
10171;DHT22;5127;50.922;6.988;2023-02-18T15:00:25;14.10;69.60
10171;DHT22;5127;50.922;6.988;2023-02-18T15:02:54;14.10;69.70
10171;DHT22;5127;50.922;6.988;2023-02-18T15:05:23;14.10;69.80
10171;DHT22;5127;50.922;6.988;2023-02-18T15:07:56;14.10;69.80
10171;DHT22;5127;50.922;6.988;2023-02-18T15:10:30;14.10;69.80
10171;DHT22;5127;50.922;6.988;2023-02-18T15:13:02;14.20;69.80
10171;DHT22;5127;50.922;6.988;2023-02-18T15:15:32;14.20;69.90
10171;DHT22;5127;50.922;6.988;2023-02-18T15:18:00;14.20;69.80
10171;DHT22;5127;50.922;6.988;2023-02-18T15:20:31;14.20;69.90
10171;DHT22;5127;50.922;6.988;2023-02-18T15:23:00;14.20;69.90
10171;DHT22;5127;50.922;6.988;2023-02-18T15:25:28;14.20;70.00
10171;DHT22;5127;50.922;6.988;2023-02-18T15:27:55;14.30;70.00
10171;DHT22;5127;50.922;6.988;2023-02-18T15:30:26;14.30;70.00
10171;DHT22;5127;50.922;6.988;2023-02-18T15:32:56;14.30;69.90
10171;DHT22;5127;50.922;6.988;2023-02-18T15:35:26;14.30;69.90
10171;DHT22;5127;50.922;6.988;2023-02-18T15:37:57;14.30;69.80
10171;DHT22;5127;50.922;6.988;2023-02-18T15:40:28;14.30;69.80
10171;DHT22;5127;50.922;6.988;2023-02-18T15:42:58;14.30;69.90
10171;DHT22;5127;50.922;6.988;2023-02-18T15:45:32;14.30;69.90
10171;DHT22;5127;50.922;6.988;2023-02-18T15:48:00;14.30;69.80
10171;DHT22;5127;50.922;6.988;2023-02-18T15:50:32;14.30;69.90
10171;DHT22;5127;50.922;6.988;2023-02-18T15:53:04;14.30;69.70
10171;DHT22;5127;50.922;6.988;2023-02-18T15:55:34;14.30;69.60
10171;DHT22;5127;50.922;6.988;2023-02-18T15:58:05;14.30;69.70
10171;DHT22;5127;50.922;6.988;2023-02-18T16:00:39;14.30;69.70
10171;DHT22;5127;50.922;6.988;2023-02-18T16:03:11;14.30;69.70
10171;DHT22;5127;50.922;6.988;2023-02-18T16:05:41;14.30;69.70
10171;DHT22;5127;50.922;6.988;2023-02-18T16:08:13;14.30;69.90
10171;DHT22;5127;50.922;6.988;2023-02-18T16:10:46;14.30;69.70
10171;DHT22;5127;50.922;6.988;2023-02-18T16:13:16;14.30;69.80
10171;DHT22;5127;50.922;6.988;2023-02-18T16:15:47;14.30;69.80
10171;DHT22;5127;50.922;6.988;2023-02-18T16:18:29;14.20;69.70
10171;DHT22;5127;50.922;6.988;2023-02-18T16:21:00;14.30;69.60
10171;DHT22;5127;50.922;6.988;2023-02-18T16:23:39;14.20;69.70